Terminal Aerodrome Forecast
Issued by NWS

Home | Current Version | Previous Version | Graphics & Text | Print | Product List | Glossary On
Versions: 1 2 3 4 5 6 7 8 9 10 11 12 13 14 15 16
000
FTUS42 KMHX 251700
TAFISO
TAF
KISO 251723Z 2518/2618 25004KT P6SM -DZ OVC007
      TEMPO 2518/2521 4SM -RA
     FM252100 34008KT 4SM -RA BR OVC020
     FM260500 02010G15KT 3SM RA OVC020
     FM261600 32010G15KT P6SM VCSH OVC040
      AMD LTD TO CLD VIS AND WIND=

USA.gov is the U.S. government's official web portal to all federal, state and local government web resources and services.